sensor_id;sensor_type;location;lat;lon;timestamp;temperature;humidity
61004;DHT22;46889;37.310;13.582;2023-02-27T00:01:38;8.60;99.90
61004;DHT22;46889;37.310;13.582;2023-02-27T00:04:04;8.70;99.90
61004;DHT22;46889;37.310;13.582;2023-02-27T00:06:31;8.70;99.90
61004;DHT22;46889;37.310;13.582;2023-02-27T00:08:58;8.70;99.90
61004;DHT22;46889;37.310;13.582;2023-02-27T00:11:25;8.70;99.90
61004;DHT22;46889;37.310;13.582;2023-02-27T00:13:51;8.70;99.90
61004;DHT22;46889;37.310;13.582;2023-02-27T00:16:18;8.60;99.90
61004;DHT22;46889;37.310;13.582;2023-02-27T00:18:45;8.60;99.90
61004;DHT22;46889;37.310;13.582;2023-02-27T00:21:11;8.70;99.90
61004;DHT22;46889;37.310;13.582;2023-02-27T00:23:37;8.70;99.90
61004;DHT22;46889;37.310;13.582;2023-02-27T00:26:04;8.80;99.90
61004;DHT22;46889;37.310;13.582;2023-02-27T00:28:31;8.80;99.90
61004;DHT22;46889;37.310;13.582;2023-02-27T00:30:57;8.80;99.90
61004;DHT22;46889;37.310;13.582;2023-02-27T00:33:24;8.80;99.90
61004;DHT22;46889;37.310;13.582;2023-02-27T00:36:00;8.90;99.90
61004;DHT22;46889;37.310;13.582;2023-02-27T00:38:28;8.90;99.90
61004;DHT22;46889;37.310;13.582;2023-02-27T00:40:54;8.90;99.90
61004;DHT22;46889;37.310;13.582;2023-02-27T00:43:20;8.90;99.90
61004;DHT22;46889;37.310;13.582;2023-02-27T00:45:47;8.90;99.90
61004;DHT22;46889;37.310;13.582;2023-02-27T00:48:13;8.90;99.90
61004;DHT22;46889;37.310;13.582;2023-02-27T00:50:39;9.00;99.90
61004;DHT22;46889;37.310;13.582;2023-02-27T00:53:05;9.00;99.90
61004;DHT22;46889;37.310;13.582;2023-02-27T00:55:31;9.00;99.90
61004;DHT22;46889;37.310;13.582;2023-02-27T00:57:57;9.00;99.90
61004;DHT22;46889;37.310;13.582;2023-02-27T01:00:25;8.90;99.90
61004;DHT22;46889;37.310;13.582;2023-02-27T01:02:52;9.00;99.90
61004;DHT22;46889;37.310;13.582;2023-02-27T01:05:19;9.00;99.90
61004;DHT22;46889;37.310;13.582;2023-02-27T01:07:47;9.00;99.90
61004;DHT22;46889;37.310;13.582;2023-02-27T01:10:16;9.00;99.90
61004;DHT22;46889;37.310;13.582;2023-02-27T01:12:42;9.00;99.90
61004;DHT22;46889;37.310;13.582;2023-02-27T01:15:11;9.00;99.90
61004;DHT22;46889;37.310;13.582;2023-02-27T01:17:38;9.10;99.90
61004;DHT22;46889;37.310;13.582;2023-02-27T01:20:06;9.10;99.90
61004;DHT22;46889;37.310;13.582;2023-02-27T01:22:33;9.10;99.90
61004;DHT22;46889;37.310;13.582;2023-02-27T01:24:59;9.10;99.90
61004;DHT22;46889;37.310;13.582;2023-02-27T01:27:26;9.10;99.90
61004;DHT22;46889;37.310;13.582;2023-02-27T01:29:52;9.10;99.90
61004;DHT22;46889;37.310;13.582;2023-02-27T01:32:18;9.10;99.90
61004;DHT22;46889;37.310;13.582;2023-02-27T01:34:44;9.10;99.90
61004;DHT22;46889;37.310;13.582;2023-02-27T01:37:10;9.10;99.90
61004;DHT22;46889;37.310;13.582;2023-02-27T01:39:36;9.10;99.90
61004;DHT22;46889;37.310;13.582;2023-02-27T01:42:02;9.20;99.90
61004;DHT22;46889;37.310;13.582;2023-02-27T01:44:30;9.20;99.90
61004;DHT22;46889;37.310;13.582;2023-02-27T01:46:58;9.30;99.90
61004;DHT22;46889;37.310;13.582;2023-02-27T01:49:28;9.30;99.90
61004;DHT22;46889;37.310;13.582;2023-02-27T01:51:59;9.40;99.90
61004;DHT22;46889;37.310;13.582;2023-02-27T01:54:29;9.40;99.90
61004;DHT22;46889;37.310;13.582;2023-02-27T01:56:56;9.30;99.90
61004;DHT22;46889;37.310;13.582;2023-02-27T01:59:22;9.30;99.90
61004;DHT22;46889;37.310;13.582;2023-02-27T02:01:49;9.30;99.90
61004;DHT22;46889;37.310;13.582;2023-02-27T02:04:30;9.30;99.90
61004;DHT22;46889;37.310;13.582;2023-02-27T02:07:04;9.30;99.90
61004;DHT22;46889;37.310;13.582;2023-02-27T02:09:38;9.40;99.90
61004;DHT22;46889;37.310;13.582;2023-02-27T02:12:08;9.50;99.90
61004;DHT22;46889;37.310;13.582;2023-02-27T02:14:35;9.50;99.90
61004;DHT22;46889;37.310;13.582;2023-02-27T02:17:14;9.60;99.90
61004;DHT22;46889;37.310;13.582;2023-02-27T02:20:23;9.60;99.90
61004;DHT22;46889;37.310;13.582;2023-02-27T02:32:00;9.60;99.90
61004;DHT22;46889;37.310;13.582;2023-02-27T02:35:05;9.60;99.90
61004;DHT22;46889;37.310;13.582;2023-02-27T02:37:55;9.60;99.90
61004;DHT22;46889;37.310;13.582;2023-02-27T02:40:29;9.70;99.90
61004;DHT22;46889;37.310;13.582;2023-02-27T02:43:12;9.60;99.90
61004;DHT22;46889;37.310;13.582;2023-02-27T02:48:19;9.70;99.90
61004;DHT22;46889;37.310;13.582;2023-02-27T02:50:50;9.70;99.90
61004;DHT22;46889;37.310;13.582;2023-02-27T02:53:30;9.80;99.90
61004;DHT22;46889;37.310;13.582;2023-02-27T02:56:06;10.10;99.90
61004;DHT22;46889;37.310;13.582;2023-02-27T02:58:58;10.40;99.90
61004;DHT22;46889;37.310;13.582;2023-02-27T03:01:42;10.50;99.90
61004;DHT22;46889;37.310;13.582;2023-02-27T03:06:56;10.70;99.90
61004;DHT22;46889;37.310;13.582;2023-02-27T03:09:33;10.80;99.90
61004;DHT22;46889;37.310;13.582;2023-02-27T03:12:02;10.90;99.90
61004;DHT22;46889;37.310;13.582;2023-02-27T03:14:39;10.80;99.90
61004;DHT22;46889;37.310;13.582;2023-02-27T03:17:17;10.90;99.90
61004;DHT22;46889;37.310;13.582;2023-02-27T03:19:55;10.90;99.90
61004;DHT22;46889;37.310;13.582;2023-02-27T03:22:29;11.00;99.90
61004;DHT22;46889;37.310;13.582;2023-02-27T03:24:58;11.00;99.90
61004;DHT22;46889;37.310;13.582;2023-02-27T03:27:34;10.90;99.90
61004;DHT22;46889;37.310;13.582;2023-02-27T03:30:09;10.80;99.90
61004;DHT22;46889;37.310;13.582;2023-02-27T03:35:19;10.90;99.90
61004;DHT22;46889;37.310;13.582;2023-02-27T03:38:07;10.90;99.90
61004;DHT22;46889;37.310;13.582;2023-02-27T03:40:51;11.00;99.90
61004;DHT22;46889;37.310;13.582;2023-02-27T03:46:17;11.10;99.90
61004;DHT22;46889;37.310;13.582;2023-02-27T03:48:47;11.10;99.90
61004;DHT22;46889;37.310;13.582;2023-02-27T03:51:19;11.20;99.90
61004;DHT22;46889;37.310;13.582;2023-02-27T03:54:06;11.20;99.90
61004;DHT22;46889;37.310;13.582;2023-02-27T03:59:10;11.10;99.90
61004;DHT22;46889;37.310;13.582;2023-02-27T04:01:36;11.20;99.90
61004;DHT22;46889;37.310;13.582;2023-02-27T04:04:07;11.40;99.90
61004;DHT22;46889;37.310;13.582;2023-02-27T04:06:37;11.30;99.90
61004;DHT22;46889;37.310;13.582;2023-02-27T04:12:28;11.30;99.90
61004;DHT22;46889;37.310;13.582;2023-02-27T04:17:54;11.10;99.90
61004;DHT22;46889;37.310;13.582;2023-02-27T04:23:04;11.10;99.90
61004;DHT22;46889;37.310;13.582;2023-02-27T04:25:39;11.00;99.90
61004;DHT22;46889;37.310;13.582;2023-02-27T04:28:35;10.90;99.90
61004;DHT22;46889;37.310;13.582;2023-02-27T04:34:02;11.00;99.90
61004;DHT22;46889;37.310;13.582;2023-02-27T04:39:07;10.90;99.90
61004;DHT22;46889;37.310;13.582;2023-02-27T04:41:38;11.10;99.90
61004;DHT22;46889;37.310;13.582;2023-02-27T04:44:17;11.10;99.90
61004;DHT22;46889;37.310;13.582;2023-02-27T04:46:44;11.20;99.90
61004;DHT22;46889;37.310;13.582;2023-02-27T04:49:17;11.50;99.90
61004;DHT22;46889;37.310;13.582;2023-02-27T04:51:52;11.90;99.90
61004;DHT22;46889;37.310;13.582;2023-02-27T04:54:44;12.00;99.90
61004;DHT22;46889;37.310;13.582;2023-02-27T04:57:17;12.10;99.90
61004;DHT22;46889;37.310;13.582;2023-02-27T04:59:47;12.00;99.90
61004;DHT22;46889;37.310;13.582;2023-02-27T05:02:32;12.00;99.90
61004;DHT22;46889;37.310;13.582;2023-02-27T05:05:03;12.00;99.90
61004;DHT22;46889;37.310;13.582;2023-02-27T05:07:36;11.90;99.90
61004;DHT22;46889;37.310;13.582;2023-02-27T05:10:09;11.80;99.90
61004;DHT22;46889;37.310;13.582;2023-02-27T05:13:19;11.80;99.90
61004;DHT22;46889;37.310;13.582;2023-02-27T05:16:03;11.70;99.90
61004;DHT22;46889;37.310;13.582;2023-02-27T05:18:31;11.70;99.90
61004;DHT22;46889;37.310;13.582;2023-02-27T05:29:52;11.60;99.90
61004;DHT22;46889;37.310;13.582;2023-02-27T05:32:25;11.70;99.90
61004;DHT22;46889;37.310;13.582;2023-02-27T05:35:10;11.70;99.90
61004;DHT22;46889;37.310;13.582;2023-02-27T05:40:07;11.70;99.90
61004;DHT22;46889;37.310;13.582;2023-02-27T05:42:44;11.60;99.90
61004;DHT22;46889;37.310;13.582;2023-02-27T05:45:18;11.40;99.90
61004;DHT22;46889;37.310;13.582;2023-02-27T05:47:51;11.20;99.90
61004;DHT22;46889;37.310;13.582;2023-02-27T05:50:30;10.70;99.90
61004;DHT22;46889;37.310;13.582;2023-02-27T05:53:01;10.30;99.90
61004;DHT22;46889;37.310;13.582;2023-02-27T05:55:40;9.90;99.90
61004;DHT22;46889;37.310;13.582;2023-02-27T05:58:23;9.30;99.90
61004;DHT22;46889;37.310;13.582;2023-02-27T06:00:57;9.00;99.90
61004;DHT22;46889;37.310;13.582;2023-02-27T06:03:25;8.90;99.90
61004;DHT22;46889;37.310;13.582;2023-02-27T06:05:53;9.00;99.90
61004;DHT22;46889;37.310;13.582;2023-02-27T06:08:20;9.00;99.90
61004;DHT22;46889;37.310;13.582;2023-02-27T06:10:47;9.00;99.90
61004;DHT22;46889;37.310;13.582;2023-02-27T06:13:16;8.80;99.90
61004;DHT22;46889;37.310;13.582;2023-02-27T06:15:43;9.00;99.90
61004;DHT22;46889;37.310;13.582;2023-02-27T06:18:10;8.80;99.90
61004;DHT22;46889;37.310;13.582;2023-02-27T06:20:38;8.60;99.90
61004;DHT22;46889;37.310;13.582;2023-02-27T06:23:05;8.50;99.90
61004;DHT22;46889;37.310;13.582;2023-02-27T06:25:31;8.50;99.90
61004;DHT22;46889;37.310;13.582;2023-02-27T06:27:58;8.50;99.90
61004;DHT22;46889;37.310;13.582;2023-02-27T06:30:24;8.50;99.90
61004;DHT22;46889;37.310;13.582;2023-02-27T06:32:50;8.50;99.90
61004;DHT22;46889;37.310;13.582;2023-02-27T06:35:16;8.60;99.90
61004;DHT22;46889;37.310;13.582;2023-02-27T06:37:44;8.70;99.90
61004;DHT22;46889;37.310;13.582;2023-02-27T06:40:11;8.80;99.90
61004;DHT22;46889;37.310;13.582;2023-02-27T06:42:40;8.90;99.90
61004;DHT22;46889;37.310;13.582;2023-02-27T06:45:07;9.00;99.90
61004;DHT22;46889;37.310;13.582;2023-02-27T06:47:33;9.10;99.90
61004;DHT22;46889;37.310;13.582;2023-02-27T06:50:00;9.20;99.90
61004;DHT22;46889;37.310;13.582;2023-02-27T06:52:26;9.00;99.90
61004;DHT22;46889;37.310;13.582;2023-02-27T06:54:52;8.90;99.90
61004;DHT22;46889;37.310;13.582;2023-02-27T06:57:18;9.00;99.90
61004;DHT22;46889;37.310;13.582;2023-02-27T06:59:44;9.10;99.90
61004;DHT22;46889;37.310;13.582;2023-02-27T07:02:12;9.00;99.90
61004;DHT22;46889;37.310;13.582;2023-02-27T07:04:38;9.30;99.90
61004;DHT22;46889;37.310;13.582;2023-02-27T07:07:06;9.20;99.90
61004;DHT22;46889;37.310;13.582;2023-02-27T07:09:33;9.10;99.90
61004;DHT22;46889;37.310;13.582;2023-02-27T07:12:02;9.10;99.90
61004;DHT22;46889;37.310;13.582;2023-02-27T07:14:28;9.50;99.90
61004;DHT22;46889;37.310;13.582;2023-02-27T07:16:54;10.30;99.90
61004;DHT22;46889;37.310;13.582;2023-02-27T07:19:23;10.60;99.90
61004;DHT22;46889;37.310;13.582;2023-02-27T07:21:50;11.00;99.90
61004;DHT22;46889;37.310;13.582;2023-02-27T07:24:16;11.60;99.90
61004;DHT22;46889;37.310;13.582;2023-02-27T07:26:42;11.80;99.90
61004;DHT22;46889;37.310;13.582;2023-02-27T07:29:08;11.90;99.90
61004;DHT22;46889;37.310;13.582;2023-02-27T07:31:35;12.00;99.90
61004;DHT22;46889;37.310;13.582;2023-02-27T07:34:02;12.40;99.90
61004;DHT22;46889;37.310;13.582;2023-02-27T07:36:30;12.50;99.90
61004;DHT22;46889;37.310;13.582;2023-02-27T07:38:56;12.60;99.90
61004;DHT22;46889;37.310;13.582;2023-02-27T07:41:23;13.30;99.90
61004;DHT22;46889;37.310;13.582;2023-02-27T07:43:49;12.80;99.90
61004;DHT22;46889;37.310;13.582;2023-02-27T07:46:15;12.70;99.90
61004;DHT22;46889;37.310;13.582;2023-02-27T07:48:41;12.30;99.90
61004;DHT22;46889;37.310;13.582;2023-02-27T09:36:49;16.70;99.90
61004;DHT22;46889;37.310;13.582;2023-02-27T09:39:41;16.70;99.90
61004;DHT22;46889;37.310;13.582;2023-02-27T09:44:51;16.90;99.90
61004;DHT22;46889;37.310;13.582;2023-02-27T09:47:39;16.80;99.90
61004;DHT22;46889;37.310;13.582;2023-02-27T09:50:44;16.90;99.90
61004;DHT22;46889;37.310;13.582;2023-02-27T09:53:29;16.80;99.90
61004;DHT22;46889;37.310;13.582;2023-02-27T09:59:10;16.40;99.90
61004;DHT22;46889;37.310;13.582;2023-02-27T10:05:14;17.10;99.90
61004;DHT22;46889;37.310;13.582;2023-02-27T10:07:51;17.10;99.90
61004;DHT22;46889;37.310;13.582;2023-02-27T10:15:53;16.80;99.90
61004;DHT22;46889;37.310;13.582;2023-02-27T10:18:34;16.80;99.90
61004;DHT22;46889;37.310;13.582;2023-02-27T10:21:15;16.70;99.90
61004;DHT22;46889;37.310;13.582;2023-02-27T10:24:25;16.60;99.90
61004;DHT22;46889;37.310;13.582;2023-02-27T10:26:54;16.90;99.90
61004;DHT22;46889;37.310;13.582;2023-02-27T10:29:40;17.00;99.90
61004;DHT22;46889;37.310;13.582;2023-02-27T10:32:31;16.70;99.90
61004;DHT22;46889;37.310;13.582;2023-02-27T10:37:36;16.60;99.90
61004;DHT22;46889;37.310;13.582;2023-02-27T10:40:05;16.80;99.90
61004;DHT22;46889;37.310;13.582;2023-02-27T10:42:34;16.80;99.90
61004;DHT22;46889;37.310;13.582;2023-02-27T10:45:04;16.80;99.90
61004;DHT22;46889;37.310;13.582;2023-02-27T10:47:31;16.80;99.90
61004;DHT22;46889;37.310;13.582;2023-02-27T10:49:58;16.70;99.90
61004;DHT22;46889;37.310;13.582;2023-02-27T10:52:24;17.10;99.90
61004;DHT22;46889;37.310;13.582;2023-02-27T10:54:52;17.00;99.90
61004;DHT22;46889;37.310;13.582;2023-02-27T10:57:31;16.90;99.90
61004;DHT22;46889;37.310;13.582;2023-02-27T11:00:05;16.90;99.90
61004;DHT22;46889;37.310;13.582;2023-02-27T11:02:42;16.80;99.90
61004;DHT22;46889;37.310;13.582;2023-02-27T11:05:28;16.90;99.90
61004;DHT22;46889;37.310;13.582;2023-02-27T11:08:20;16.70;99.90
61004;DHT22;46889;37.310;13.582;2023-02-27T11:13:28;17.10;99.90
61004;DHT22;46889;37.310;13.582;2023-02-27T11:16:13;17.00;99.90
61004;DHT22;46889;37.310;13.582;2023-02-27T11:18:43;17.00;99.90
61004;DHT22;46889;37.310;13.582;2023-02-27T11:21:11;17.10;99.90
61004;DHT22;46889;37.310;13.582;2023-02-27T11:23:49;17.20;99.90
61004;DHT22;46889;37.310;13.582;2023-02-27T11:31:54;17.30;99.90
61004;DHT22;46889;37.310;13.582;2023-02-27T11:34:35;17.10;99.90
61004;DHT22;46889;37.310;13.582;2023-02-27T11:37:32;16.60;99.90
61004;DHT22;46889;37.310;13.582;2023-02-27T11:42:36;16.70;99.90
61004;DHT22;46889;37.310;13.582;2023-02-27T11:48:07;16.70;99.90
61004;DHT22;46889;37.310;13.582;2023-02-27T11:51:00;16.80;99.90
61004;DHT22;46889;37.310;13.582;2023-02-27T11:56:31;16.80;99.90
61004;DHT22;46889;37.310;13.582;2023-02-27T11:59:21;16.80;99.90
61004;DHT22;46889;37.310;13.582;2023-02-27T12:04:52;16.80;99.90
61004;DHT22;46889;37.310;13.582;2023-02-27T12:07:22;17.00;99.90
61004;DHT22;46889;37.310;13.582;2023-02-27T12:13:32;17.10;99.90
61004;DHT22;46889;37.310;13.582;2023-02-27T12:15:55;17.00;99.90
61004;DHT22;46889;37.310;13.582;2023-02-27T12:21:14;16.90;99.90
61004;DHT22;46889;37.310;13.582;2023-02-27T12:31:51;17.40;99.90
61004;DHT22;46889;37.310;13.582;2023-02-27T12:34:48;17.30;99.90
61004;DHT22;46889;37.310;13.582;2023-02-27T12:37:27;17.10;99.90
61004;DHT22;46889;37.310;13.582;2023-02-27T12:39:55;17.30;99.90
61004;DHT22;46889;37.310;13.582;2023-02-27T12:54:04;16.90;99.90
61004;DHT22;46889;37.310;13.582;2023-02-27T12:59:51;16.70;99.90
61004;DHT22;46889;37.310;13.582;2023-02-27T13:02:52;17.00;99.90
61004;DHT22;46889;37.310;13.582;2023-02-27T13:13:51;16.90;99.90
61004;DHT22;46889;37.310;13.582;2023-02-27T13:16:36;16.90;99.90
61004;DHT22;46889;37.310;13.582;2023-02-27T13:19:17;16.60;99.90
61004;DHT22;46889;37.310;13.582;2023-02-27T13:21:51;16.60;99.90
61004;DHT22;46889;37.310;13.582;2023-02-27T13:24:27;16.60;99.90
61004;DHT22;46889;37.310;13.582;2023-02-27T13:27:06;16.80;99.90
61004;DHT22;46889;37.310;13.582;2023-02-27T13:29:44;16.90;99.90
61004;DHT22;46889;37.310;13.582;2023-02-27T13:35:41;16.50;99.90
61004;DHT22;46889;37.310;13.582;2023-02-27T13:40:38;16.10;99.90
61004;DHT22;46889;37.310;13.582;2023-02-27T13:43:38;16.30;99.90
61004;DHT22;46889;37.310;13.582;2023-02-27T13:46:31;16.80;99.90
61004;DHT22;46889;37.310;13.582;2023-02-27T13:51:45;16.70;99.90
61004;DHT22;46889;37.310;13.582;2023-02-27T14:02:02;16.60;99.90
61004;DHT22;46889;37.310;13.582;2023-02-27T14:04:33;16.70;99.90
61004;DHT22;46889;37.310;13.582;2023-02-27T14:07:06;16.50;99.90
61004;DHT22;46889;37.310;13.582;2023-02-27T14:09:37;16.90;99.90
61004;DHT22;46889;37.310;13.582;2023-02-27T14:12:06;16.70;99.90
61004;DHT22;46889;37.310;13.582;2023-02-27T14:14:49;16.90;99.90
61004;DHT22;46889;37.310;13.582;2023-02-27T14:26:26;17.00;99.90
61004;DHT22;46889;37.310;13.582;2023-02-27T14:28:53;16.90;99.90
61004;DHT22;46889;37.310;13.582;2023-02-27T14:31:32;17.10;99.90
61004;DHT22;46889;37.310;13.582;2023-02-27T14:34:03;16.70;99.90
61004;DHT22;46889;37.310;13.582;2023-02-27T14:36:52;16.70;99.90
61004;DHT22;46889;37.310;13.582;2023-02-27T14:39:29;16.90;99.90
61004;DHT22;46889;37.310;13.582;2023-02-27T14:42:07;17.20;99.90
61004;DHT22;46889;37.310;13.582;2023-02-27T14:44:46;17.00;99.90
61004;DHT22;46889;37.310;13.582;2023-02-27T14:47:21;17.00;99.90
61004;DHT22;46889;37.310;13.582;2023-02-27T14:49:48;17.00;99.90
61004;DHT22;46889;37.310;13.582;2023-02-27T14:52:26;16.90;99.90
61004;DHT22;46889;37.310;13.582;2023-02-27T14:55:18;16.70;99.90
61004;DHT22;46889;37.310;13.582;2023-02-27T15:06:04;16.20;99.90
61004;DHT22;46889;37.310;13.582;2023-02-27T15:08:39;16.40;99.90
61004;DHT22;46889;37.310;13.582;2023-02-27T15:11:06;16.30;99.90
61004;DHT22;46889;37.310;13.582;2023-02-27T15:13:38;16.10;99.90
61004;DHT22;46889;37.310;13.582;2023-02-27T15:18:49;16.20;99.90
61004;DHT22;46889;37.310;13.582;2023-02-27T15:21:17;16.20;99.90
61004;DHT22;46889;37.310;13.582;2023-02-27T15:23:52;16.40;99.90
61004;DHT22;46889;37.310;13.582;2023-02-27T15:26:19;16.30;99.90
61004;DHT22;46889;37.310;13.582;2023-02-27T15:28:48;16.30;99.90
61004;DHT22;46889;37.310;13.582;2023-02-27T15:31:20;16.20;99.90
61004;DHT22;46889;37.310;13.582;2023-02-27T15:33:48;16.30;99.90
61004;DHT22;46889;37.310;13.582;2023-02-27T15:36:26;16.40;99.90
61004;DHT22;46889;37.310;13.582;2023-02-27T15:39:15;16.20;99.90
61004;DHT22;46889;37.310;13.582;2023-02-27T15:41:53;16.30;99.90
61004;DHT22;46889;37.310;13.582;2023-02-27T15:44:24;16.10;99.90
61004;DHT22;46889;37.310;13.582;2023-02-27T15:46:53;16.20;99.90
61004;DHT22;46889;37.310;13.582;2023-02-27T15:49:23;16.10;99.90
61004;DHT22;46889;37.310;13.582;2023-02-27T15:52:01;15.90;99.90
61004;DHT22;46889;37.310;13.582;2023-02-27T15:54:34;16.00;99.90
61004;DHT22;46889;37.310;13.582;2023-02-27T15:57:04;15.80;99.90
61004;DHT22;46889;37.310;13.582;2023-02-27T15:59:35;15.60;99.90
61004;DHT22;46889;37.310;13.582;2023-02-27T16:02:13;15.60;99.90
61004;DHT22;46889;37.310;13.582;2023-02-27T16:04:43;15.50;99.90
61004;DHT22;46889;37.310;13.582;2023-02-27T16:07:19;15.30;99.90
61004;DHT22;46889;37.310;13.582;2023-02-27T16:09:52;15.00;99.90
61004;DHT22;46889;37.310;13.582;2023-02-27T16:12:36;14.90;99.90
61004;DHT22;46889;37.310;13.582;2023-02-27T16:15:26;15.10;99.90
61004;DHT22;46889;37.310;13.582;2023-02-27T16:18:20;15.20;99.90
61004;DHT22;46889;37.310;13.582;2023-02-27T16:21:10;14.80;99.90
61004;DHT22;46889;37.310;13.582;2023-02-27T16:23:37;14.90;99.90
61004;DHT22;46889;37.310;13.582;2023-02-27T16:26:05;15.00;99.90
61004;DHT22;46889;37.310;13.582;2023-02-27T16:28:52;14.90;99.90
61004;DHT22;46889;37.310;13.582;2023-02-27T16:31:27;14.90;99.90
61004;DHT22;46889;37.310;13.582;2023-02-27T16:34:00;14.90;99.90
61004;DHT22;46889;37.310;13.582;2023-02-27T16:36:29;14.90;99.90
61004;DHT22;46889;37.310;13.582;2023-02-27T16:38:58;14.80;99.90
61004;DHT22;46889;37.310;13.582;2023-02-27T16:41:25;14.90;99.90
61004;DHT22;46889;37.310;13.582;2023-02-27T16:43:52;14.80;99.90
61004;DHT22;46889;37.310;13.582;2023-02-27T16:46:19;14.60;99.90
61004;DHT22;46889;37.310;13.582;2023-02-27T16:48:54;14.50;99.90
61004;DHT22;46889;37.310;13.582;2023-02-27T16:51:32;14.40;99.90
61004;DHT22;46889;37.310;13.582;2023-02-27T16:53:59;14.30;99.90
61004;DHT22;46889;37.310;13.582;2023-02-27T16:56:27;14.20;99.90
61004;DHT22;46889;37.310;13.582;2023-02-27T16:58:53;14.20;99.90
61004;DHT22;46889;37.310;13.582;2023-02-27T17:01:19;14.10;99.90
61004;DHT22;46889;37.310;13.582;2023-02-27T17:03:46;14.10;99.90
61004;DHT22;46889;37.310;13.582;2023-02-27T17:06:13;14.00;99.90
61004;DHT22;46889;37.310;13.582;2023-02-27T17:08:41;13.90;99.90
61004;DHT22;46889;37.310;13.582;2023-02-27T17:11:10;13.80;99.90
61004;DHT22;46889;37.310;13.582;2023-02-27T17:13:41;13.70;99.90
61004;DHT22;46889;37.310;13.582;2023-02-27T17:16:09;13.70;99.90
61004;DHT22;46889;37.310;13.582;2023-02-27T17:18:35;13.70;99.90
61004;DHT22;46889;37.310;13.582;2023-02-27T17:21:04;13.70;99.90
61004;DHT22;46889;37.310;13.582;2023-02-27T17:23:31;13.60;99.90
61004;DHT22;46889;37.310;13.582;2023-02-27T17:26:01;13.60;99.90
61004;DHT22;46889;37.310;13.582;2023-02-27T17:28:29;13.60;99.90
61004;DHT22;46889;37.310;13.582;2023-02-27T17:30:55;13.40;99.90
61004;DHT22;46889;37.310;13.582;2023-02-27T17:33:22;13.40;99.90
61004;DHT22;46889;37.310;13.582;2023-02-27T17:35:59;13.40;99.90
61004;DHT22;46889;37.310;13.582;2023-02-27T17:38:26;13.30;99.90
61004;DHT22;46889;37.310;13.582;2023-02-27T17:40:53;13.20;99.90
61004;DHT22;46889;37.310;13.582;2023-02-27T17:43:21;13.20;99.90
61004;DHT22;46889;37.310;13.582;2023-02-27T17:45:49;13.10;99.90
61004;DHT22;46889;37.310;13.582;2023-02-27T17:48:15;13.10;99.90
61004;DHT22;46889;37.310;13.582;2023-02-27T17:50:50;12.90;99.90
61004;DHT22;46889;37.310;13.582;2023-02-27T17:53:17;12.90;99.90
61004;DHT22;46889;37.310;13.582;2023-02-27T17:55:44;12.90;99.90
61004;DHT22;46889;37.310;13.582;2023-02-27T17:58:13;12.90;99.90
61004;DHT22;46889;37.310;13.582;2023-02-27T18:00:42;12.90;99.90
61004;DHT22;46889;37.310;13.582;2023-02-27T18:03:08;12.90;99.90
61004;DHT22;46889;37.310;13.582;2023-02-27T18:05:35;12.90;99.90
61004;DHT22;46889;37.310;13.582;2023-02-27T18:08:01;12.90;99.90
61004;DHT22;46889;37.310;13.582;2023-02-27T18:10:28;12.90;99.90
61004;DHT22;46889;37.310;13.582;2023-02-27T18:12:54;13.00;99.90
61004;DHT22;46889;37.310;13.582;2023-02-27T18:15:20;13.00;99.90
61004;DHT22;46889;37.310;13.582;2023-02-27T18:17:47;13.00;99.90
61004;DHT22;46889;37.310;13.582;2023-02-27T18:20:13;12.90;99.90
61004;DHT22;46889;37.310;13.582;2023-02-27T18:22:40;13.00;99.90
61004;DHT22;46889;37.310;13.582;2023-02-27T18:34:38;12.80;99.90
61004;DHT22;46889;37.310;13.582;2023-02-27T18:37:12;12.70;99.90
61004;DHT22;46889;37.310;13.582;2023-02-27T18:39:47;12.70;99.90
61004;DHT22;46889;37.310;13.582;2023-02-27T18:42:14;12.70;99.90
61004;DHT22;46889;37.310;13.582;2023-02-27T18:44:44;12.70;99.90
61004;DHT22;46889;37.310;13.582;2023-02-27T18:47:13;12.80;99.90
61004;DHT22;46889;37.310;13.582;2023-02-27T18:49:39;12.80;99.90
61004;DHT22;46889;37.310;13.582;2023-02-27T18:52:07;12.80;99.90
61004;DHT22;46889;37.310;13.582;2023-02-27T18:54:38;12.70;99.90
61004;DHT22;46889;37.310;13.582;2023-02-27T18:57:06;12.70;99.90
61004;DHT22;46889;37.310;13.582;2023-02-27T18:59:33;12.70;99.90
61004;DHT22;46889;37.310;13.582;2023-02-27T19:02:00;12.70;99.90
61004;DHT22;46889;37.310;13.582;2023-02-27T19:04:27;12.70;99.90
61004;DHT22;46889;37.310;13.582;2023-02-27T19:06:56;12.60;99.90
61004;DHT22;46889;37.310;13.582;2023-02-27T19:09:25;12.60;99.90
61004;DHT22;46889;37.310;13.582;2023-02-27T19:11:59;12.50;99.90
61004;DHT22;46889;37.310;13.582;2023-02-27T19:14:27;12.40;99.90
61004;DHT22;46889;37.310;13.582;2023-02-27T19:16:53;12.40;99.90
61004;DHT22;46889;37.310;13.582;2023-02-27T19:19:22;12.40;99.90
61004;DHT22;46889;37.310;13.582;2023-02-27T19:21:58;12.40;99.90
61004;DHT22;46889;37.310;13.582;2023-02-27T19:24:25;12.50;99.90
61004;DHT22;46889;37.310;13.582;2023-02-27T19:26:54;12.50;99.90
61004;DHT22;46889;37.310;13.582;2023-02-27T19:29:20;12.60;99.90
61004;DHT22;46889;37.310;13.582;2023-02-27T19:31:47;12.60;99.90
61004;DHT22;46889;37.310;13.582;2023-02-27T19:34:14;12.60;99.90
61004;DHT22;46889;37.310;13.582;2023-02-27T19:36:41;12.60;99.90
61004;DHT22;46889;37.310;13.582;2023-02-27T19:39:09;12.60;99.90
61004;DHT22;46889;37.310;13.582;2023-02-27T19:41:39;12.60;99.90
61004;DHT22;46889;37.310;13.582;2023-02-27T19:44:05;12.60;99.90
61004;DHT22;46889;37.310;13.582;2023-02-27T19:46:36;12.50;99.90
61004;DHT22;46889;37.310;13.582;2023-02-27T19:49:03;12.50;99.90
61004;DHT22;46889;37.310;13.582;2023-02-27T19:51:33;12.40;99.90
61004;DHT22;46889;37.310;13.582;2023-02-27T19:53:59;12.40;99.90
61004;DHT22;46889;37.310;13.582;2023-02-27T19:56:28;12.40;99.90
61004;DHT22;46889;37.310;13.582;2023-02-27T19:58:54;12.40;99.90
61004;DHT22;46889;37.310;13.582;2023-02-27T20:01:25;12.40;99.90
61004;DHT22;46889;37.310;13.582;2023-02-27T20:03:51;12.30;99.90
61004;DHT22;46889;37.310;13.582;2023-02-27T20:06:20;12.20;99.90
61004;DHT22;46889;37.310;13.582;2023-02-27T20:08:49;12.10;99.90
61004;DHT22;46889;37.310;13.582;2023-02-27T20:11:16;12.10;99.90
61004;DHT22;46889;37.310;13.582;2023-02-27T20:13:43;12.10;99.90
61004;DHT22;46889;37.310;13.582;2023-02-27T20:16:12;12.00;99.90
61004;DHT22;46889;37.310;13.582;2023-02-27T20:18:39;12.00;99.90
61004;DHT22;46889;37.310;13.582;2023-02-27T20:21:13;12.00;99.90
61004;DHT22;46889;37.310;13.582;2023-02-27T20:23:41;12.00;99.90
61004;DHT22;46889;37.310;13.582;2023-02-27T20:26:21;11.90;99.90